createdAt,value
2019-02-02T00:03:50.979Z,84.37
2019-02-02T00:08:55.927Z,84.77
2019-02-02T00:14:00.884Z,77.93
2019-02-02T00:19:05.995Z,78.37
2019-02-02T00:24:10.970Z,77.63
2019-02-02T00:29:15.927Z,74.80
2019-02-02T00:34:20.883Z,76.10
2019-02-02T00:39:25.837Z,77.43
2019-02-02T00:44:30.776Z,74.30
2019-02-02T00:49:35.746Z,76.77
2019-02-02T00:54:40.694Z,76.80
2019-02-02T00:59:45.653Z,78.20
2019-02-02T01:04:50.613Z,75.77
2019-02-02T01:09:55.607Z,73.73
2019-02-02T01:15:00.603Z,81.77
2019-02-02T01:20:06.379Z,79.53
2019-02-02T01:25:11.714Z,77.83
2019-02-02T01:30:17.396Z,83.07
2019-02-02T01:35:22.345Z,81.40
2019-02-02T01:40:27.571Z,79.30
2019-02-02T01:45:32.618Z,78.07
2019-02-02T01:50:37.552Z,78.63
2019-02-02T01:55:42.539Z,81.90
2019-02-02T02:00:47.494Z,82.53
2019-02-02T02:05:52.442Z,80.90
2019-02-02T02:10:58.303Z,76.17
2019-02-02T02:16:03.373Z,77.33
2019-02-02T02:21:08.333Z,80.20
2019-02-02T02:26:13.298Z,78.47
2019-02-02T02:31:18.254Z,77.03
2019-02-02T02:36:23.199Z,79.63
2019-02-02T02:41:28.157Z,83.77
2019-02-02T02:46:33.126Z,78.67
2019-02-02T02:51:38.081Z,78.33
2019-02-02T02:56:43.049Z,79.53
2019-02-02T03:01:48.023Z,77.47
2019-02-02T03:06:52.981Z,79.43
2019-02-02T03:11:57.932Z,82.07
2019-02-02T03:17:02.872Z,82.00
2019-02-02T03:22:07.853Z,80.80
2019-02-02T03:27:12.957Z,80.73
2019-02-02T03:32:17.951Z,86.63
2019-02-02T03:37:23.255Z,85.13
2019-02-02T03:42:28.357Z,80.20
2019-02-02T03:47:33.426Z,87.03
2019-02-02T03:52:38.424Z,85.23
2019-02-02T03:57:43.394Z,83.07
2019-02-02T04:02:48.491Z,86.43
2019-02-02T04:07:53.617Z,89.50
2019-02-02T04:12:58.635Z,83.20
2019-02-02T04:18:03.603Z,83.37
2019-02-02T04:23:08.677Z,83.23
2019-02-02T04:28:13.650Z,92.40
2019-02-02T04:33:18.662Z,87.40
2019-02-02T04:38:23.603Z,80.90
2019-02-02T04:43:28.569Z,82.70
2019-02-02T04:48:33.536Z,90.27
2019-02-02T04:53:38.494Z,87.53
2019-02-02T04:58:43.459Z,86.13
2019-02-02T05:03:48.529Z,84.63
2019-02-02T05:08:53.493Z,82.93
2019-02-02T05:13:58.440Z,82.93
2019-02-02T05:19:03.388Z,87.20
2019-02-02T05:24:08.373Z,84.57
2019-02-02T05:29:13.328Z,90.30
2019-02-02T05:34:18.266Z,80.67
2019-02-02T05:39:23.214Z,89.30
2019-02-02T05:44:28.182Z,86.47
2019-02-02T05:49:33.138Z,90.33
2019-02-02T05:54:38.086Z,87.97
2019-02-02T05:59:52.445Z,85.87
2019-02-02T06:04:49.654Z,88.40
2019-02-02T06:09:54.598Z,85.17
2019-02-02T06:14:59.546Z,87.93
2019-02-02T06:20:05.248Z,83.97
2019-02-02T06:25:11.240Z,86.40
2019-02-02T06:30:17.834Z,90.53
2019-02-02T06:35:22.765Z,83.50
2019-02-02T06:40:27.714Z,86.43
2019-02-02T06:45:34.726Z,88.90
2019-02-02T06:50:39.695Z,85.13
2019-02-02T06:55:44.635Z,84.97
2019-02-02T07:00:49.644Z,89.37
2019-02-02T07:05:54.597Z,90.73
2019-02-02T07:10:59.578Z,83.57
2019-02-02T07:16:04.759Z,89.50
2019-02-02T07:21:09.724Z,83.67
2019-02-02T07:26:14.661Z,87.27
2019-02-02T07:31:19.625Z,89.83
2019-02-02T07:36:24.577Z,87.20
2019-02-02T07:41:29.602Z,79.53
2019-02-02T07:46:34.599Z,80.63
2019-02-02T07:51:39.661Z,88.10
2019-02-02T07:56:44.721Z,88.77
2019-02-02T08:01:49.719Z,84.60
2019-02-02T08:06:54.753Z,86.50
2019-02-02T08:11:59.760Z,84.23
2019-02-02T08:17:04.759Z,89.77
2019-02-02T08:22:10.051Z,79.90
2019-02-02T08:27:15.347Z,85.33
2019-02-02T08:32:20.376Z,86.53
2019-02-02T08:37:25.399Z,87.37
2019-02-02T08:42:30.583Z,87.40
2019-02-02T08:47:35.579Z,79.73
2019-02-02T08:52:40.599Z,88.53
2019-02-02T08:57:45.616Z,91.43
2019-02-02T09:02:50.682Z,97.20
2019-02-02T09:07:55.835Z,87.90
2019-02-02T09:13:00.971Z,91.83
2019-02-02T09:18:06.038Z,87.73
2019-02-02T09:23:11.101Z,87.70
2019-02-02T09:28:16.099Z,91.10
2019-02-02T09:33:21.275Z,92.13
2019-02-02T09:38:26.336Z,94.03
2019-02-02T09:43:31.340Z,92.07
2019-02-02T09:48:36.380Z,85.83
2019-02-02T09:53:41.383Z,93.23
2019-02-02T09:58:46.378Z,91.43
2019-02-02T10:03:51.811Z,95.93
2019-02-02T10:08:56.921Z,98.43
2019-02-02T10:14:01.962Z,103.27
2019-02-02T10:19:06.964Z,98.67
2019-02-02T10:24:12.027Z,93.37
2019-02-02T10:29:18.818Z,87.77
2019-02-02T10:34:23.849Z,91.27
2019-02-02T10:39:28.864Z,89.73
2019-02-02T10:44:33.922Z,86.53
2019-02-02T10:49:38.963Z,92.07
2019-02-02T10:54:43.998Z,88.30
2019-02-02T10:59:49.137Z,85.53
2019-02-02T11:04:54.203Z,83.57
2019-02-02T11:09:59.413Z,83.93
2019-02-02T11:15:05.796Z,89.90
2019-02-02T11:20:17.285Z,90.27
2019-02-02T11:25:20.999Z,90.10
2019-02-02T11:30:26.900Z,100.57
2019-02-02T11:35:31.994Z,95.73
2019-02-02T11:40:37.002Z,86.23
2019-02-02T11:45:42.006Z,87.87
2019-02-02T11:50:47.003Z,86.90
2019-02-02T11:55:52.014Z,86.80
2019-02-02T12:00:57.008Z,89.33
2019-02-02T12:06:02.329Z,86.67
2019-02-02T12:11:08.697Z,88.53
2019-02-02T12:16:13.707Z,86.40
2019-02-02T12:21:18.723Z,86.53
2019-02-02T12:26:23.783Z,89.13
2019-02-02T12:31:28.785Z,89.20
2019-02-02T12:36:33.881Z,92.47
2019-02-02T12:41:38.935Z,91.70
2019-02-02T12:46:43.938Z,101.33
2019-02-02T12:51:48.943Z,114.27
2019-02-02T12:56:53.948Z,106.60
2019-02-02T13:01:59.006Z,103.07
2019-02-02T13:07:04.128Z,107.50
2019-02-02T13:12:09.126Z,104.67
2019-02-02T13:17:14.253Z,131.67
2019-02-02T13:22:19.314Z,104.47
2019-02-02T13:27:24.360Z,105.43
2019-02-02T13:32:29.450Z,109.67
2019-02-02T13:37:34.851Z,104.70
2019-02-02T13:42:39.991Z,107.03
2019-02-02T13:47:45.028Z,109.33
2019-02-02T13:52:50.062Z,109.63
2019-02-02T13:57:55.071Z,113.80
2019-02-02T14:03:03.309Z,115.07
2019-02-02T14:08:07.233Z,125.17
2019-02-02T14:13:12.284Z,120.53
2019-02-02T14:18:17.292Z,124.63
2019-02-02T14:23:22.307Z,129.90
2019-02-02T14:28:28.760Z,125.33
2019-02-02T14:33:33.987Z,115.57
2019-02-02T14:38:39.038Z,120.07
2019-02-02T14:43:44.043Z,117.67
2019-02-02T14:48:49.104Z,125.60
2019-02-02T14:53:54.107Z,124.83
2019-02-02T14:58:59.124Z,124.20
2019-02-02T15:04:04.179Z,116.17
2019-02-02T15:09:09.615Z,132.07
2019-02-02T15:14:14.639Z,120.73
2019-02-02T15:19:19.923Z,116.40
2019-02-02T15:24:25.072Z,110.50
2019-02-02T15:29:30.054Z,128.87
2019-02-02T15:34:35.059Z,115.77
2019-02-02T15:39:40.080Z,118.27
2019-02-02T15:44:45.123Z,115.67
2019-02-02T15:49:50.168Z,117.10
2019-02-02T15:54:55.187Z,116.17
2019-02-02T16:00:00.214Z,115.30
2019-02-02T16:05:08.106Z,124.80
2019-02-02T16:10:18.742Z,123.43
2019-02-02T16:15:23.751Z,117.73
2019-02-02T16:20:34.483Z,120.53
2019-02-02T16:25:39.530Z,117.97
2019-02-02T16:30:44.500Z,122.13
2019-02-02T16:35:49.520Z,120.67
2019-02-02T16:40:54.511Z,117.10
2019-02-02T16:45:59.531Z,115.80
2019-02-02T16:51:04.551Z,118.87
2019-02-02T16:56:09.579Z,113.57
2019-02-02T17:01:14.631Z,119.67
2019-02-02T17:06:19.640Z,126.73
2019-02-02T17:11:24.688Z,137.53
2019-02-02T17:16:29.776Z,122.23
2019-02-02T17:21:34.771Z,131.33
2019-02-02T17:26:41.541Z,128.27
2019-02-02T17:31:47.223Z,130.87
2019-02-02T17:36:52.524Z,140.37
2019-02-02T17:41:57.523Z,142.47
2019-02-02T17:47:02.538Z,127.87
2019-02-02T17:52:07.555Z,157.87
2019-02-02T17:57:12.587Z,139.10
2019-02-02T18:02:17.639Z,148.00
2019-02-02T18:07:22.747Z,137.00
2019-02-02T18:12:27.747Z,135.70
2019-02-02T18:17:32.752Z,133.73
2019-02-02T18:22:37.883Z,140.27
2019-02-02T18:27:43.099Z,150.00
2019-02-02T18:32:50.401Z,154.90
2019-02-02T18:37:55.443Z,157.23
2019-02-02T18:43:00.498Z,152.87
2019-02-02T18:48:06.085Z,156.27
2019-02-02T18:53:11.477Z,137.70
2019-02-02T18:58:16.556Z,139.80
2019-02-02T19:03:21.641Z,135.43
2019-02-02T19:08:26.675Z,134.87
2019-02-02T19:13:31.788Z,127.50
2019-02-02T19:18:36.810Z,133.37
2019-02-02T19:23:41.828Z,136.80
2019-02-02T19:28:46.832Z,132.07
2019-02-02T19:33:51.903Z,129.50
2019-02-02T19:38:56.970Z,133.87
2019-02-02T19:44:02.087Z,123.00
2019-02-02T19:49:07.206Z,122.17
2019-02-02T19:54:12.196Z,123.73
2019-02-02T19:59:17.208Z,128.57
2019-02-02T20:04:22.232Z,129.87
2019-02-02T20:09:27.236Z,124.20
2019-02-02T20:14:32.272Z,129.83
2019-02-02T20:19:37.309Z,127.27
2019-02-02T20:24:42.340Z,120.33
2019-02-02T20:29:47.431Z,130.07
2019-02-02T20:34:52.612Z,130.47
2019-02-02T20:39:57.690Z,121.83
2019-02-02T20:45:02.823Z,134.53
2019-02-02T20:50:11.580Z,142.47
2019-02-02T20:55:22.055Z,133.13
2019-02-02T21:00:28.224Z,125.40
2019-02-02T21:05:33.624Z,135.53
2019-02-02T21:10:39.043Z,137.63
2019-02-02T21:15:44.070Z,141.53
2019-02-02T21:20:49.115Z,136.90
2019-02-02T21:25:54.120Z,136.13
2019-02-02T21:30:59.187Z,127.33
2019-02-02T21:36:04.507Z,130.77
2019-02-02T21:41:10.028Z,128.47
2019-02-02T21:46:15.118Z,134.17
2019-02-02T21:51:20.135Z,131.63
2019-02-02T21:56:25.181Z,126.30
2019-02-02T22:01:30.212Z,125.60
2019-02-02T22:06:35.277Z,131.30
2019-02-02T22:11:40.347Z,135.13
2019-02-02T22:16:45.378Z,125.87
2019-02-02T22:21:50.448Z,134.30
2019-02-02T22:26:55.828Z,124.77
2019-02-02T22:32:00.963Z,136.00
2019-02-02T22:37:06.298Z,125.20
2019-02-02T22:42:11.316Z,128.83
2019-02-02T22:47:16.376Z,125.87
2019-02-02T22:52:21.395Z,129.60
2019-02-02T22:57:26.407Z,136.57
2019-02-02T23:02:31.429Z,120.97
2019-02-02T23:08:08.686Z,119.07
2019-02-02T23:13:43.476Z,120.23
2019-02-02T23:18:48.497Z,114.77
2019-02-02T23:23:53.561Z,115.07
2019-02-02T23:28:58.571Z,120.33
2019-02-02T23:34:03.802Z,113.30
2019-02-02T23:39:09.767Z,124.60
2019-02-02T23:44:15.227Z,126.13
2019-02-02T23:49:20.238Z,116.83
2019-02-02T23:54:25.262Z,114.87
2019-02-02T23:59:30.292Z,112.63
